Terminal Aerodrome Forecast
Issued by NWS Paducah, KY

Home | Current Version | Previous Version | Text Only | Print | Product List | Glossary On
Versions: 1 2 3 4 5 6 7 8 9 10 11 12 13 14 15 16 17 18 19 20 21
000
FTUS43 KPAH 030520
TAFEVV
TAF
KEVV 030520Z 0306/0406 33003KT 6SM BR BKN040
     FM031000 00000KT 4SM BR VCSH BKN020
      TEMPO 0310/0314 3SM BR BKN010
     FM031600 30006KT P6SM SCT012 BKN025 PROB30 0316/0321 TS
      BKN025CB
     FM032100 32006KT P6SM SCT025 BKN035
     FM040100 35003KT P6SM FEW035 SCT100=

USA.gov is the U.S. government's official web portal to all federal, state and local government web resources and services.